createdAt,value
2018-07-13T00:01:42.262Z,19.90
2018-07-13T00:04:09.921Z,18.43
2018-07-13T00:06:37.599Z,18.80
2018-07-13T00:09:08.144Z,21.53
2018-07-13T00:11:36.416Z,20.30
2018-07-13T00:14:27.117Z,20.67
2018-07-13T00:16:56.959Z,19.60
2018-07-13T00:19:25.050Z,20.50
2018-07-13T00:21:52.869Z,21.10
2018-07-13T00:24:20.468Z,20.67
2018-07-13T00:26:48.138Z,23.13
2018-07-13T00:29:15.779Z,22.77
2018-07-13T00:31:43.972Z,24.17
2018-07-13T00:34:11.533Z,22.53
2018-07-13T00:36:39.110Z,20.33
2018-07-13T00:39:09.361Z,22.87
2018-07-13T00:41:36.990Z,20.97
2018-07-13T00:44:05.023Z,20.27
2018-07-13T00:46:32.658Z,19.97
2018-07-13T00:49:00.309Z,21.70
2018-07-13T00:51:28.520Z,22.10
2018-07-13T00:53:56.089Z,23.73
2018-07-13T00:56:23.697Z,24.60
2018-07-13T00:58:51.225Z,22.80
2018-07-13T01:01:18.820Z,24.30
2018-07-13T01:03:46.408Z,26.40
2018-07-13T01:06:14.013Z,24.43
2018-07-13T01:08:41.578Z,24.80
2018-07-13T01:11:09.225Z,24.50
2018-07-13T01:13:36.880Z,23.03
2018-07-13T01:16:04.634Z,23.33
2018-07-13T01:18:32.405Z,24.87
2018-07-13T01:20:59.956Z,24.37
2018-07-13T01:23:27.522Z,24.43
2018-07-13T01:25:55.134Z,26.70
2018-07-13T01:28:22.850Z,26.50
2018-07-13T01:30:50.454Z,29.90
2018-07-13T01:33:18.037Z,30.07
2018-07-13T01:35:45.600Z,31.93
2018-07-13T01:38:13.129Z,30.33
2018-07-13T01:40:40.751Z,33.60
2018-07-13T01:43:08.297Z,33.03
2018-07-13T01:45:35.828Z,31.30
2018-07-13T01:48:03.654Z,32.87
2018-07-13T01:50:31.557Z,31.87
2018-07-13T01:52:59.270Z,30.97
2018-07-13T01:55:26.858Z,33.03
2018-07-13T01:57:54.473Z,33.37
2018-07-13T02:00:22.029Z,32.27
2018-07-13T02:02:49.629Z,34.10
2018-07-13T02:05:17.180Z,34.07
2018-07-13T02:07:44.744Z,32.53
2018-07-13T02:10:12.346Z,33.37
2018-07-13T02:12:39.889Z,33.00
2018-07-13T02:15:07.504Z,33.30
2018-07-13T02:17:35.080Z,36.13
2018-07-13T02:20:05.646Z,33.50
2018-07-13T02:22:33.200Z,33.47
2018-07-13T02:25:00.741Z,34.83
2018-07-13T02:27:29.109Z,33.23
2018-07-13T02:29:56.687Z,32.13
2018-07-13T02:32:24.292Z,33.43
2018-07-13T02:34:51.877Z,31.83
2018-07-13T02:37:19.565Z,33.83
2018-07-13T02:39:47.144Z,33.80
2018-07-13T02:42:14.704Z,36.70
2018-07-13T02:44:42.313Z,33.20
2018-07-13T02:47:09.849Z,35.30
2018-07-13T02:49:37.890Z,35.20
2018-07-13T02:52:05.486Z,32.00
2018-07-13T02:54:39.490Z,32.43
2018-07-13T02:57:07.086Z,30.50
2018-07-13T02:59:34.678Z,30.53
2018-07-13T03:02:02.294Z,34.30
2018-07-13T03:04:29.833Z,31.73
2018-07-13T03:06:57.447Z,33.57
2018-07-13T03:09:25.058Z,32.67
2018-07-13T03:11:52.645Z,32.27
2018-07-13T03:14:20.242Z,32.13
2018-07-13T03:16:47.860Z,30.53
2018-07-13T03:19:15.383Z,32.27
2018-07-13T03:21:43.003Z,31.87
2018-07-13T03:24:10.547Z,34.33
2018-07-13T03:26:38.069Z,34.83
2018-07-13T03:29:05.709Z,33.37
2018-07-13T03:31:33.384Z,31.20
2018-07-13T03:34:00.946Z,31.20
2018-07-13T03:36:28.769Z,30.63
2018-07-13T03:38:56.372Z,29.77
2018-07-13T03:41:23.931Z,31.07
2018-07-13T03:43:51.912Z,32.57
2018-07-13T03:46:19.524Z,30.53
2018-07-13T03:48:47.132Z,32.97
2018-07-13T03:51:14.671Z,30.50
2018-07-13T03:53:42.263Z,30.27
2018-07-13T03:56:09.889Z,31.60
2018-07-13T03:58:37.536Z,32.70
2018-07-13T04:01:05.122Z,32.87
2018-07-13T04:03:32.813Z,35.33
2018-07-13T04:06:00.328Z,32.80
2018-07-13T04:08:27.864Z,33.20
2018-07-13T04:10:55.498Z,30.53
2018-07-13T04:13:23.074Z,29.20
2018-07-13T04:15:50.642Z,34.13
2018-07-13T04:18:22.695Z,31.97
2018-07-13T04:20:51.017Z,33.10
2018-07-13T04:23:19.443Z,36.27
2018-07-13T04:25:47.137Z,35.77
2018-07-13T04:28:15.404Z,34.63
2018-07-13T04:30:43.366Z,34.23
2018-07-13T04:33:10.993Z,30.80
2018-07-13T04:35:38.574Z,33.43
2018-07-13T04:38:06.429Z,31.27
2018-07-13T04:40:34.066Z,32.00
2018-07-13T04:43:01.674Z,31.63
2018-07-13T04:45:29.461Z,32.20
2018-07-13T04:47:57.111Z,34.00
2018-07-13T04:50:25.165Z,33.53
2018-07-13T04:52:53.033Z,33.17
2018-07-13T04:55:21.532Z,34.80
2018-07-13T04:57:49.320Z,33.43
2018-07-13T05:00:17.044Z,30.47
2018-07-13T05:02:44.673Z,33.20
2018-07-13T05:05:12.530Z,36.57
2018-07-13T05:07:40.154Z,33.47
2018-07-13T05:10:07.775Z,31.93
2018-07-13T05:12:35.794Z,32.40
2018-07-13T05:15:03.789Z,32.10
2018-07-13T05:17:31.366Z,31.37
2018-07-13T05:19:58.920Z,31.13
2018-07-13T05:22:26.548Z,32.40
2018-07-13T05:24:54.306Z,31.70
2018-07-13T05:27:21.967Z,30.50
2018-07-13T05:29:49.635Z,31.77
2018-07-13T05:32:17.249Z,33.00
2018-07-13T05:34:44.923Z,33.27
2018-07-13T05:37:13.065Z,32.07
2018-07-13T05:39:40.800Z,32.20
2018-07-13T05:42:08.400Z,31.67
2018-07-13T05:44:36.110Z,32.00
2018-07-13T05:47:03.827Z,32.63
2018-07-13T05:49:34.797Z,31.27
2018-07-13T05:52:02.445Z,29.87
2018-07-13T05:54:30.319Z,28.20
2018-07-13T05:56:58.005Z,31.43
2018-07-13T05:59:25.664Z,28.30
2018-07-13T06:01:53.342Z,30.90
2018-07-13T06:04:20.909Z,28.73
2018-07-13T06:06:48.648Z,29.90
2018-07-13T06:09:16.306Z,31.17
2018-07-13T06:11:44.333Z,28.83
2018-07-13T06:14:11.885Z,29.83
2018-07-13T06:16:39.466Z,29.50
2018-07-13T06:19:07.009Z,27.80
2018-07-13T06:21:34.659Z,26.13
2018-07-13T06:24:02.902Z,28.30
2018-07-13T06:26:30.802Z,27.20
2018-07-13T06:28:58.420Z,26.77
2018-07-13T06:31:26.125Z,28.47
2018-07-13T06:33:53.677Z,25.50
2018-07-13T06:36:21.330Z,25.57
2018-07-13T06:38:48.981Z,25.87
2018-07-13T06:41:16.601Z,26.20
2018-07-13T06:43:44.250Z,27.07
2018-07-13T06:46:11.939Z,27.87
2018-07-13T06:48:39.546Z,24.30
2018-07-13T06:51:07.189Z,27.07
2018-07-13T06:53:34.729Z,26.80
2018-07-13T06:56:02.326Z,26.87
2018-07-13T06:59:08.349Z,28.93
2018-07-13T07:01:35.984Z,26.97
2018-07-13T07:04:18.308Z,24.93
2018-07-13T07:06:45.830Z,27.40
2018-07-13T07:09:13.738Z,25.87
2018-07-13T07:11:45.804Z,27.20
2018-07-13T07:14:13.252Z,24.73
2018-07-13T07:16:40.880Z,23.67
2018-07-13T07:19:08.454Z,23.53
2018-07-13T07:21:36.110Z,23.23
2018-07-13T07:24:03.686Z,25.67
2018-07-13T07:26:31.355Z,22.87
2018-07-13T07:28:58.914Z,21.40
2018-07-13T07:31:26.544Z,24.17
2018-07-13T07:33:54.141Z,21.57
2018-07-13T07:36:21.693Z,20.97
2018-07-13T07:38:49.354Z,20.73
2018-07-13T07:41:16.935Z,22.10
2018-07-13T07:43:44.530Z,19.50
2018-07-13T07:46:12.102Z,19.77
2018-07-13T07:48:39.679Z,19.93
2018-07-13T07:51:07.251Z,20.60
2018-07-13T07:53:34.864Z,20.87
2018-07-13T07:56:02.537Z,19.93
2018-07-13T07:58:30.136Z,20.13
2018-07-13T08:00:57.706Z,18.67
2018-07-13T08:03:25.283Z,18.33
2018-07-13T08:05:52.915Z,19.80
2018-07-13T08:08:20.513Z,19.87
2018-07-13T08:10:48.037Z,18.93
2018-07-13T08:13:15.612Z,19.00
2018-07-13T08:15:43.154Z,19.00
2018-07-13T08:18:10.709Z,19.33
2018-07-13T08:20:43.834Z,19.23
2018-07-13T08:23:11.473Z,17.03
2018-07-13T08:25:39.433Z,17.33
2018-07-13T08:28:07.797Z,16.43
2018-07-13T08:30:43.973Z,17.90
2018-07-13T08:33:11.666Z,17.83
2018-07-13T08:35:39.171Z,17.63
2018-07-13T08:38:07.657Z,16.87
2018-07-13T08:40:35.238Z,18.20
2018-07-13T08:43:02.859Z,18.73
2018-07-13T08:45:30.458Z,17.80
2018-07-13T08:47:58.206Z,17.60
2018-07-13T08:50:25.862Z,16.57
2018-07-13T08:52:54.857Z,17.10
2018-07-13T08:55:22.473Z,15.73
2018-07-13T08:57:50.592Z,15.17
2018-07-13T09:00:18.667Z,18.00
2018-07-13T09:02:46.314Z,15.83
2018-07-13T09:05:13.896Z,15.17
2018-07-13T09:07:41.546Z,15.27
2018-07-13T09:10:10.173Z,14.67
2018-07-13T09:12:38.199Z,14.73
2018-07-13T09:15:06.508Z,17.60
2018-07-13T09:17:34.094Z,14.83
2018-07-13T09:20:01.664Z,15.77
2018-07-13T09:22:29.356Z,16.33
2018-07-13T09:24:57.018Z,15.63
2018-07-13T09:27:24.621Z,14.93
2018-07-13T09:29:52.225Z,13.67
2018-07-13T09:32:19.785Z,13.67
2018-07-13T09:34:47.391Z,14.57
2018-07-13T09:37:14.977Z,15.17
2018-07-13T09:39:42.556Z,14.00
2018-07-13T09:42:10.150Z,14.43
2018-07-13T09:44:37.795Z,14.03
2018-07-13T09:47:05.390Z,15.40
2018-07-13T09:49:32.968Z,14.13
2018-07-13T09:52:00.641Z,16.70
2018-07-13T09:54:28.304Z,16.00
2018-07-13T09:56:56.742Z,15.93
2018-07-13T09:59:24.317Z,12.90
2018-07-13T10:01:51.936Z,12.30
2018-07-13T10:04:19.565Z,14.87
2018-07-13T10:06:47.147Z,13.37
2018-07-13T10:09:14.750Z,12.80
2018-07-13T10:11:42.370Z,16.77
2018-07-13T10:14:10.045Z,13.00
2018-07-13T10:16:37.675Z,13.17
2018-07-13T10:19:05.309Z,12.70
2018-07-13T10:21:33.707Z,11.90
2018-07-13T10:24:01.444Z,12.77
2018-07-13T10:26:35.206Z,11.87
2018-07-13T10:29:08.143Z,11.97
2018-07-13T10:31:35.771Z,10.77
2018-07-13T10:34:04.807Z,10.33
2018-07-13T10:36:34.284Z,10.43
2018-07-13T10:39:01.862Z,9.60
2018-07-13T10:41:29.437Z,13.27
2018-07-13T10:43:57.046Z,10.33
2018-07-13T10:46:24.668Z,10.00
2018-07-13T10:48:52.262Z,9.27
2018-07-13T10:51:19.909Z,10.90
2018-07-13T10:53:47.494Z,10.60
2018-07-13T10:56:15.280Z,11.17
2018-07-13T10:58:43.096Z,10.53
2018-07-13T11:01:10.632Z,10.63
2018-07-13T11:03:38.205Z,10.17
2018-07-13T11:06:05.793Z,11.73
2018-07-13T11:08:33.373Z,10.30
2018-07-13T11:11:00.932Z,9.93
2018-07-13T11:13:28.482Z,11.43
2018-07-13T11:15:56.064Z,11.33
2018-07-13T11:18:23.599Z,12.07
2018-07-13T11:20:51.154Z,10.37
2018-07-13T11:23:18.685Z,9.80
2018-07-13T11:25:46.287Z,10.33
2018-07-13T11:28:13.907Z,8.80
2018-07-13T11:30:41.467Z,10.60
2018-07-13T11:33:09.127Z,9.50
2018-07-13T11:35:36.696Z,8.87
2018-07-13T11:38:04.249Z,7.77
2018-07-13T11:40:31.830Z,9.00
2018-07-13T11:42:59.373Z,10.60
2018-07-13T11:45:27.023Z,8.43
2018-07-13T11:47:56.322Z,8.43
2018-07-13T11:50:23.901Z,8.00
2018-07-13T11:52:51.609Z,8.70
2018-07-13T11:55:19.297Z,8.03
2018-07-13T11:57:46.821Z,8.47
2018-07-13T12:00:14.732Z,7.67
2018-07-13T12:02:42.264Z,9.10
2018-07-13T12:05:09.841Z,9.13
2018-07-13T12:07:37.488Z,9.13
2018-07-13T12:10:05.016Z,7.47
2018-07-13T12:12:32.754Z,7.97
2018-07-13T12:15:00.358Z,7.90
2018-07-13T12:17:27.978Z,7.20
2018-07-13T12:19:55.551Z,8.20
2018-07-13T12:22:23.080Z,8.00
2018-07-13T12:24:50.672Z,7.77
2018-07-13T12:27:18.184Z,8.33
2018-07-13T12:29:45.746Z,7.50
2018-07-13T12:32:13.349Z,7.97
2018-07-13T12:34:40.889Z,8.40
2018-07-13T12:37:08.418Z,8.87
2018-07-13T12:39:36.088Z,9.03
2018-07-13T12:42:03.671Z,7.80
2018-07-13T12:44:31.192Z,8.50
2018-07-13T12:46:58.755Z,7.73
2018-07-13T12:49:26.278Z,9.07
2018-07-13T12:51:53.866Z,8.40
2018-07-13T12:54:21.567Z,8.60
2018-07-13T12:56:49.026Z,8.07
2018-07-13T12:59:16.733Z,8.60
2018-07-13T13:01:44.421Z,8.00
2018-07-13T13:04:12.184Z,9.30
2018-07-13T13:06:39.875Z,7.23
2018-07-13T13:09:09.125Z,9.23
2018-07-13T13:11:36.717Z,7.70
2018-07-13T13:14:04.351Z,7.37
2018-07-13T13:16:31.923Z,7.53
2018-07-13T13:18:59.893Z,8.80
2018-07-13T13:21:27.554Z,7.87
2018-07-13T13:23:55.155Z,8.33
2018-07-13T13:26:22.773Z,8.40
2018-07-13T13:28:50.313Z,7.50
2018-07-13T13:31:17.898Z,7.97
2018-07-13T13:33:45.486Z,8.27
2018-07-13T13:36:13.021Z,8.27
2018-07-13T13:38:40.557Z,7.60
2018-07-13T13:41:08.149Z,7.30
2018-07-13T13:43:35.705Z,9.07
2018-07-13T13:46:04.037Z,7.80
2018-07-13T13:48:31.897Z,7.80
2018-07-13T13:50:59.478Z,8.00
2018-07-13T13:53:27.081Z,8.73
2018-07-13T13:55:54.837Z,7.43
2018-07-13T13:58:22.429Z,9.20
2018-07-13T14:00:50.776Z,7.47
2018-07-13T14:03:18.303Z,7.07
2018-07-13T14:05:46.611Z,8.90
2018-07-13T14:08:14.751Z,8.97
2018-07-13T14:10:42.323Z,7.43
2018-07-13T14:13:10.166Z,7.70
2018-07-13T14:15:37.739Z,8.37
2018-07-13T14:18:05.377Z,8.33
2018-07-13T14:20:32.920Z,8.00
2018-07-13T14:23:00.509Z,8.23
2018-07-13T14:25:28.100Z,8.47
2018-07-13T14:27:55.722Z,8.00
2018-07-13T14:30:23.241Z,8.10
2018-07-13T14:32:50.956Z,8.70
2018-07-13T14:35:18.533Z,8.93
2018-07-13T14:37:46.301Z,8.40
2018-07-13T14:40:13.908Z,9.90
2018-07-13T14:42:41.485Z,8.50
2018-07-13T14:45:09.034Z,8.90
2018-07-13T14:47:36.586Z,8.27
2018-07-13T14:50:04.136Z,8.83
2018-07-13T14:52:31.714Z,9.80
2018-07-13T14:54:59.293Z,9.23
2018-07-13T14:57:26.853Z,9.23
2018-07-13T14:59:54.420Z,9.63
2018-07-13T15:02:21.977Z,9.63
2018-07-13T15:04:49.514Z,8.17
2018-07-13T15:07:17.297Z,8.60
2018-07-13T15:09:44.867Z,7.40
2018-07-13T15:12:12.444Z,7.67
2018-07-13T15:14:39.992Z,8.70
2018-07-13T15:17:09.374Z,8.53
2018-07-13T15:19:36.934Z,8.87
2018-07-13T15:22:04.595Z,6.93
2018-07-13T15:24:32.126Z,7.60
2018-07-13T15:26:59.701Z,7.03
2018-07-13T15:29:27.297Z,6.67
2018-07-13T15:31:54.978Z,8.13
2018-07-13T15:34:22.480Z,8.13
2018-07-13T15:36:50.021Z,7.27
2018-07-13T15:39:17.607Z,7.43
2018-07-13T15:41:45.166Z,6.70
2018-07-13T15:44:12.737Z,8.10
2018-07-13T15:46:40.253Z,7.63
2018-07-13T15:49:07.842Z,8.73
2018-07-13T15:51:35.434Z,8.00
2018-07-13T15:54:03.030Z,7.73
2018-07-13T15:56:30.611Z,8.07
2018-07-13T15:58:58.289Z,7.77
2018-07-13T16:01:25.753Z,8.60
2018-07-13T16:03:53.309Z,8.23
2018-07-13T16:06:20.872Z,10.03
2018-07-13T16:08:48.445Z,8.70
2018-07-13T16:11:15.966Z,10.10
2018-07-13T16:13:43.614Z,6.67
2018-07-13T16:16:11.264Z,5.13
2018-07-13T16:18:38.772Z,5.67
2018-07-13T16:21:06.361Z,5.03
2018-07-13T16:23:33.973Z,4.97
2018-07-13T16:26:01.525Z,4.97
2018-07-13T16:28:29.197Z,5.27
2018-07-13T16:30:56.769Z,5.43
2018-07-13T16:33:24.354Z,5.70
2018-07-13T16:35:51.871Z,5.93
2018-07-13T16:38:19.449Z,8.07
2018-07-13T16:40:47.089Z,6.30
2018-07-13T16:43:14.652Z,6.00
2018-07-13T16:45:42.209Z,6.20
2018-07-13T16:48:09.782Z,6.00
2018-07-13T16:50:37.387Z,5.63
2018-07-13T16:53:04.929Z,5.97
2018-07-13T16:55:32.758Z,6.33
2018-07-13T16:58:00.289Z,6.43
2018-07-13T17:00:27.838Z,5.73
2018-07-13T17:02:55.373Z,6.17
2018-07-13T17:05:22.983Z,7.50
2018-07-13T17:07:50.588Z,7.43
2018-07-13T17:10:18.197Z,7.20
2018-07-13T17:12:45.744Z,6.83
2018-07-13T17:15:23.891Z,7.27
2018-07-13T17:17:51.589Z,7.67
2018-07-13T17:20:19.233Z,5.77
2018-07-13T17:22:46.741Z,6.00
2018-07-13T17:25:14.341Z,4.37
2018-07-13T17:27:41.897Z,5.93
2018-07-13T17:30:10.172Z,4.40
2018-07-13T17:32:37.804Z,3.67
2018-07-13T17:35:05.420Z,3.40
2018-07-13T17:37:33.013Z,4.20
2018-07-13T17:40:00.709Z,3.67
2018-07-13T17:42:28.239Z,5.63
2018-07-13T17:44:55.809Z,4.40
2018-07-13T17:47:23.349Z,5.97
2018-07-13T17:49:51.022Z,4.47
2018-07-13T17:52:18.582Z,5.10
2018-07-13T17:54:46.154Z,4.60
2018-07-13T17:57:13.700Z,4.17
2018-07-13T17:59:41.361Z,6.43
2018-07-13T18:02:08.930Z,6.00
2018-07-13T18:04:36.500Z,6.30
2018-07-13T18:07:04.321Z,5.90
2018-07-13T18:09:31.868Z,6.90
2018-07-13T18:11:59.410Z,6.53
2018-07-13T18:14:26.963Z,7.27
2018-07-13T18:16:54.607Z,7.67
2018-07-13T18:19:22.136Z,6.67
2018-07-13T18:21:49.708Z,8.60
2018-07-13T18:24:17.242Z,7.20
2018-07-13T18:26:44.834Z,7.53
2018-07-13T18:29:12.475Z,7.97
2018-07-13T18:31:40.262Z,6.97
2018-07-13T18:34:07.873Z,6.97
2018-07-13T18:36:35.457Z,7.60
2018-07-13T18:39:03.943Z,7.80
2018-07-13T18:41:31.573Z,6.83
2018-07-13T18:43:59.124Z,6.63
2018-07-13T18:46:26.695Z,8.63
2018-07-13T18:48:54.223Z,7.60
2018-07-13T18:51:21.809Z,6.67
2018-07-13T18:53:49.353Z,7.53
2018-07-13T18:56:17.238Z,7.87
2018-07-13T18:58:44.969Z,6.80
2018-07-13T19:01:12.540Z,6.83
2018-07-13T19:03:40.190Z,7.07
2018-07-13T19:06:07.873Z,6.63
2018-07-13T19:08:35.511Z,7.63
2018-07-13T19:11:03.112Z,8.77
2018-07-13T19:13:30.682Z,6.77
2018-07-13T19:15:58.251Z,8.67
2018-07-13T19:18:25.797Z,6.30
2018-07-13T19:20:53.338Z,6.50
2018-07-13T19:23:20.924Z,7.33
2018-07-13T19:25:48.521Z,5.87
2018-07-13T19:28:16.048Z,5.77
2018-07-13T19:30:43.697Z,6.13
2018-07-13T19:33:11.180Z,5.70
2018-07-13T19:35:38.816Z,5.33
2018-07-13T19:38:06.380Z,6.03
2018-07-13T19:40:33.965Z,5.73
2018-07-13T19:43:01.507Z,6.53
2018-07-13T19:45:29.033Z,5.97
2018-07-13T19:47:56.609Z,6.47
2018-07-13T19:50:24.154Z,5.60
2018-07-13T19:52:52.090Z,6.10
2018-07-13T19:55:19.644Z,5.97
2018-07-13T19:57:47.210Z,8.00
2018-07-13T20:00:14.759Z,6.27
2018-07-13T20:02:42.299Z,6.07
2018-07-13T20:05:09.840Z,6.00
2018-07-13T20:07:37.410Z,6.70
2018-07-13T20:10:05.021Z,6.23
2018-07-13T20:12:32.585Z,5.97
2018-07-13T20:15:00.189Z,6.03
2018-07-13T20:17:27.745Z,5.43
2018-07-13T20:19:55.345Z,6.70
2018-07-13T20:22:22.872Z,5.77
2018-07-13T20:24:50.417Z,6.00
2018-07-13T20:27:17.986Z,6.80
2018-07-13T20:29:45.529Z,6.40
2018-07-13T20:32:13.117Z,6.83
2018-07-13T20:34:40.689Z,5.90
2018-07-13T20:37:08.310Z,6.70
2018-07-13T20:39:36.062Z,7.30
2018-07-13T20:42:03.748Z,7.40
2018-07-13T20:44:31.798Z,7.27
2018-07-13T20:46:59.364Z,7.30
2018-07-13T20:49:26.912Z,7.53
2018-07-13T20:51:54.572Z,7.83
2018-07-13T20:54:22.104Z,7.40
2018-07-13T20:56:49.679Z,7.67
2018-07-13T20:59:17.248Z,8.47
2018-07-13T21:01:44.806Z,7.57
2018-07-13T21:04:12.386Z,7.40
2018-07-13T21:06:39.928Z,9.90
2018-07-13T21:09:08.537Z,7.77
2018-07-13T21:11:36.111Z,7.43
2018-07-13T21:14:03.662Z,6.87
2018-07-13T21:16:31.197Z,7.60
2018-07-13T21:18:58.767Z,6.80
2018-07-13T21:21:26.312Z,7.50
2018-07-13T21:23:53.963Z,9.07
2018-07-13T21:26:21.636Z,7.20
2018-07-13T21:28:49.514Z,7.37
2018-07-13T21:31:17.089Z,8.37
2018-07-13T21:33:44.952Z,8.00
2018-07-13T21:36:12.576Z,8.33
2018-07-13T21:38:40.159Z,8.23
2018-07-13T21:41:07.796Z,8.57
2018-07-13T21:43:35.584Z,8.70
2018-07-13T21:46:03.102Z,9.30
2018-07-13T21:48:30.675Z,8.40
2018-07-13T21:50:58.234Z,8.23
2018-07-13T21:53:25.859Z,9.93
2018-07-13T21:55:53.379Z,8.30
2018-07-13T21:58:21.017Z,11.10
2018-07-13T22:00:48.608Z,8.83
2018-07-13T22:03:16.235Z,8.87
2018-07-13T22:05:43.860Z,9.50
2018-07-13T22:08:11.427Z,9.90
2018-07-13T22:10:38.949Z,12.57
2018-07-13T22:13:06.498Z,8.73
2018-07-13T22:15:34.023Z,8.60
2018-07-13T22:18:01.630Z,8.83
2018-07-13T22:20:29.174Z,8.73
2018-07-13T22:22:56.801Z,9.23
2018-07-13T22:25:24.383Z,10.50
2018-07-13T22:27:52.109Z,10.47
2018-07-13T22:30:19.794Z,9.80
2018-07-13T22:32:47.381Z,10.03
2018-07-13T22:35:14.952Z,11.60
2018-07-13T22:37:42.488Z,9.57
2018-07-13T22:40:10.093Z,9.77
2018-07-13T22:42:37.652Z,9.60
2018-07-13T22:45:05.952Z,13.97
2018-07-13T22:47:33.493Z,9.53
2018-07-13T22:50:01.098Z,9.80
2018-07-13T22:52:28.637Z,8.67
2018-07-13T22:54:56.307Z,12.17
2018-07-13T22:57:23.852Z,8.67
2018-07-13T22:59:51.467Z,8.37
2018-07-13T23:02:18.986Z,12.63
2018-07-13T23:04:46.564Z,9.10
2018-07-13T23:07:14.115Z,9.13
2018-07-13T23:09:41.684Z,9.10
2018-07-13T23:12:09.219Z,9.17
2018-07-13T23:14:36.799Z,8.53
2018-07-13T23:17:04.543Z,11.53
2018-07-13T23:19:32.104Z,10.80
2018-07-13T23:21:59.762Z,10.03
2018-07-13T23:24:27.345Z,10.10
2018-07-13T23:26:54.879Z,10.40
2018-07-13T23:29:22.541Z,9.60
2018-07-13T23:31:50.085Z,9.40
2018-07-13T23:34:17.873Z,10.77
2018-07-13T23:36:45.625Z,10.17
2018-07-13T23:39:13.201Z,9.80
2018-07-13T23:41:40.761Z,11.60
2018-07-13T23:44:08.332Z,9.50
2018-07-13T23:46:35.857Z,8.93
2018-07-13T23:49:03.470Z,10.87
2018-07-13T23:51:31.004Z,9.53
2018-07-13T23:53:58.692Z,9.30
2018-07-13T23:56:26.273Z,8.57
2018-07-13T23:58:53.804Z,8.90
